sensor_id;sensor_type;location;lat;lon;timestamp;P1;durP1;ratioP1;P2;durP2;ratioP2
49464;SDS011;35358;49.342;8.802;2022-07-23T00:00:01;8.95;;;7.97;;
49464;SDS011;35358;49.342;8.802;2022-07-23T00:02:28;9.00;;;7.65;;
49464;SDS011;35358;49.342;8.802;2022-07-23T00:04:54;8.68;;;7.88;;
49464;SDS011;35358;49.342;8.802;2022-07-23T00:07:19;8.15;;;7.35;;
49464;SDS011;35358;49.342;8.802;2022-07-23T00:09:45;9.32;;;8.00;;
49464;SDS011;35358;49.342;8.802;2022-07-23T00:12:10;8.18;;;7.47;;
49464;SDS011;35358;49.342;8.802;2022-07-23T00:14:36;9.25;;;8.45;;
49464;SDS011;35358;49.342;8.802;2022-07-23T00:17:01;8.95;;;8.05;;
49464;SDS011;35358;49.342;8.802;2022-07-23T00:19:27;8.63;;;7.72;;
49464;SDS011;35358;49.342;8.802;2022-07-23T00:21:55;10.10;;;7.75;;
49464;SDS011;35358;49.342;8.802;2022-07-23T00:24:23;10.38;;;8.63;;
49464;SDS011;35358;49.342;8.802;2022-07-23T00:26:51;10.70;;;8.43;;
49464;SDS011;35358;49.342;8.802;2022-07-23T00:29:19;10.60;;;8.70;;
49464;SDS011;35358;49.342;8.802;2022-07-23T00:31:44;9.63;;;7.80;;
49464;SDS011;35358;49.342;8.802;2022-07-23T00:34:12;8.95;;;7.95;;
49464;SDS011;35358;49.342;8.802;2022-07-23T00:36:40;8.85;;;8.05;;
49464;SDS011;35358;49.342;8.802;2022-07-23T00:39:08;11.70;;;8.73;;
49464;SDS011;35358;49.342;8.802;2022-07-23T00:41:34;10.13;;;7.72;;
49464;SDS011;35358;49.342;8.802;2022-07-23T00:44:14;8.88;;;8.07;;
49464;SDS011;35358;49.342;8.802;2022-07-23T00:46:58;9.18;;;8.15;;
49464;SDS011;35358;49.342;8.802;2022-07-23T00:49:28;10.23;;;8.40;;
49464;SDS011;35358;49.342;8.802;2022-07-23T00:51:57;11.70;;;8.68;;
49464;SDS011;35358;49.342;8.802;2022-07-23T00:54:26;8.63;;;7.35;;
49464;SDS011;35358;49.342;8.802;2022-07-23T00:56:52;9.43;;;8.32;;
49464;SDS011;35358;49.342;8.802;2022-07-23T00:59:21;11.73;;;7.90;;
49464;SDS011;35358;49.342;8.802;2022-07-23T01:01:48;9.93;;;8.63;;
49464;SDS011;35358;49.342;8.802;2022-07-23T01:04:16;10.82;;;8.50;;
49464;SDS011;35358;49.342;8.802;2022-07-23T01:06:42;10.45;;;8.38;;
49464;SDS011;35358;49.342;8.802;2022-07-23T01:09:11;9.45;;;8.45;;
49464;SDS011;35358;49.342;8.802;2022-07-23T01:11:39;11.15;;;8.43;;
49464;SDS011;35358;49.342;8.802;2022-07-23T01:14:14;9.90;;;8.90;;
49464;SDS011;35358;49.342;8.802;2022-07-23T01:16:41;10.15;;;9.13;;
49464;SDS011;35358;49.342;8.802;2022-07-23T01:19:07;11.30;;;8.75;;
49464;SDS011;35358;49.342;8.802;2022-07-23T01:21:35;9.38;;;8.30;;
49464;SDS011;35358;49.342;8.802;2022-07-23T01:24:02;10.63;;;8.77;;
49464;SDS011;35358;49.342;8.802;2022-07-23T01:26:29;8.13;;;7.32;;
49464;SDS011;35358;49.342;8.802;2022-07-23T01:28:54;9.93;;;8.18;;
49464;SDS011;35358;49.342;8.802;2022-07-23T01:31:22;10.05;;;9.05;;
49464;SDS011;35358;49.342;8.802;2022-07-23T01:33:50;10.57;;;9.20;;
49464;SDS011;35358;49.342;8.802;2022-07-23T01:36:15;10.23;;;8.88;;
49464;SDS011;35358;49.342;8.802;2022-07-23T01:38:41;12.25;;;8.38;;
49464;SDS011;35358;49.342;8.802;2022-07-23T01:41:07;8.90;;;8.00;;
49464;SDS011;35358;49.342;8.802;2022-07-23T01:43:32;11.23;;;8.20;;
49464;SDS011;35358;49.342;8.802;2022-07-23T01:46:00;11.75;;;9.90;;
49464;SDS011;35358;49.342;8.802;2022-07-23T01:48:26;12.05;;;8.85;;
49464;SDS011;35358;49.342;8.802;2022-07-23T01:50:51;9.30;;;8.35;;
49464;SDS011;35358;49.342;8.802;2022-07-23T01:53:19;9.75;;;8.68;;
49464;SDS011;35358;49.342;8.802;2022-07-23T01:55:47;8.75;;;7.95;;
49464;SDS011;35358;49.342;8.802;2022-07-23T01:58:13;10.00;;;8.48;;
49464;SDS011;35358;49.342;8.802;2022-07-23T02:00:38;10.38;;;9.23;;
49464;SDS011;35358;49.342;8.802;2022-07-23T02:03:07;9.63;;;8.57;;
49464;SDS011;35358;49.342;8.802;2022-07-23T02:05:32;10.32;;;8.27;;
49464;SDS011;35358;49.342;8.802;2022-07-23T02:07:58;9.90;;;8.65;;
49464;SDS011;35358;49.342;8.802;2022-07-23T02:10:25;9.48;;;8.48;;
49464;SDS011;35358;49.342;8.802;2022-07-23T02:12:51;9.43;;;8.52;;
49464;SDS011;35358;49.342;8.802;2022-07-23T02:15:20;9.30;;;8.40;;
49464;SDS011;35358;49.342;8.802;2022-07-23T02:17:45;9.68;;;8.75;;
49464;SDS011;35358;49.342;8.802;2022-07-23T02:20:13;9.55;;;8.55;;
49464;SDS011;35358;49.342;8.802;2022-07-23T02:22:39;12.02;;;9.00;;
49464;SDS011;35358;49.342;8.802;2022-07-23T02:25:06;11.70;;;8.95;;
49464;SDS011;35358;49.342;8.802;2022-07-23T02:27:32;9.80;;;8.75;;
49464;SDS011;35358;49.342;8.802;2022-07-23T02:29:58;10.20;;;9.20;;
49464;SDS011;35358;49.342;8.802;2022-07-23T02:32:26;11.23;;;8.68;;
49464;SDS011;35358;49.342;8.802;2022-07-23T02:34:54;12.55;;;9.27;;
49464;SDS011;35358;49.342;8.802;2022-07-23T02:37:20;9.65;;;8.35;;
49464;SDS011;35358;49.342;8.802;2022-07-23T02:39:45;9.60;;;8.38;;
49464;SDS011;35358;49.342;8.802;2022-07-23T02:42:13;10.65;;;9.55;;
49464;SDS011;35358;49.342;8.802;2022-07-23T02:44:39;10.40;;;9.02;;
49464;SDS011;35358;49.342;8.802;2022-07-23T02:47:04;12.10;;;9.27;;
49464;SDS011;35358;49.342;8.802;2022-07-23T02:49:33;12.70;;;9.50;;
49464;SDS011;35358;49.342;8.802;2022-07-23T02:51:58;10.60;;;9.57;;
49464;SDS011;35358;49.342;8.802;2022-07-23T02:54:26;10.05;;;9.05;;
49464;SDS011;35358;49.342;8.802;2022-07-23T02:56:52;12.07;;;9.93;;
49464;SDS011;35358;49.342;8.802;2022-07-23T02:59:18;12.13;;;9.35;;
49464;SDS011;35358;49.342;8.802;2022-07-23T03:01:46;11.15;;;9.32;;
49464;SDS011;35358;49.342;8.802;2022-07-23T03:04:12;10.50;;;9.38;;
49464;SDS011;35358;49.342;8.802;2022-07-23T03:06:38;11.02;;;8.70;;
49464;SDS011;35358;49.342;8.802;2022-07-23T03:09:06;9.77;;;8.77;;
49464;SDS011;35358;49.342;8.802;2022-07-23T03:11:34;12.68;;;9.05;;
49464;SDS011;35358;49.342;8.802;2022-07-23T03:14:00;10.23;;;8.60;;
49464;SDS011;35358;49.342;8.802;2022-07-23T03:16:28;11.68;;;9.50;;
49464;SDS011;35358;49.342;8.802;2022-07-23T03:18:53;10.23;;;8.10;;
49464;SDS011;35358;49.342;8.802;2022-07-23T03:21:19;11.77;;;8.45;;
49464;SDS011;35358;49.342;8.802;2022-07-23T03:23:44;13.38;;;8.40;;
49464;SDS011;35358;49.342;8.802;2022-07-23T03:26:10;9.85;;;8.05;;
49464;SDS011;35358;49.342;8.802;2022-07-23T03:28:38;13.45;;;8.38;;
49464;SDS011;35358;49.342;8.802;2022-07-23T03:31:03;9.88;;;8.52;;
49464;SDS011;35358;49.342;8.802;2022-07-23T03:33:29;10.75;;;8.50;;
49464;SDS011;35358;49.342;8.802;2022-07-23T03:35:57;11.05;;;8.32;;
49464;SDS011;35358;49.342;8.802;2022-07-23T03:38:22;8.98;;;7.75;;
49464;SDS011;35358;49.342;8.802;2022-07-23T03:40:50;8.90;;;7.40;;
49464;SDS011;35358;49.342;8.802;2022-07-23T03:43:16;11.30;;;8.10;;
49464;SDS011;35358;49.342;8.802;2022-07-23T03:45:43;9.85;;;7.53;;
49464;SDS011;35358;49.342;8.802;2022-07-23T03:48:11;8.90;;;7.65;;
49464;SDS011;35358;49.342;8.802;2022-07-23T03:50:39;10.85;;;8.38;;
49464;SDS011;35358;49.342;8.802;2022-07-23T03:53:05;9.65;;;8.75;;
49464;SDS011;35358;49.342;8.802;2022-07-23T03:55:31;11.90;;;9.45;;
49464;SDS011;35358;49.342;8.802;2022-07-23T03:58:01;10.02;;;8.98;;
49464;SDS011;35358;49.342;8.802;2022-07-23T04:00:26;10.60;;;9.38;;
49464;SDS011;35358;49.342;8.802;2022-07-23T04:02:52;9.57;;;8.68;;
49464;SDS011;35358;49.342;8.802;2022-07-23T04:05:17;10.48;;;8.70;;
49464;SDS011;35358;49.342;8.802;2022-07-23T04:07:45;10.10;;;9.10;;
49464;SDS011;35358;49.342;8.802;2022-07-23T04:10:11;11.27;;;8.70;;
49464;SDS011;35358;49.342;8.802;2022-07-23T04:12:39;10.77;;;9.10;;
49464;SDS011;35358;49.342;8.802;2022-07-23T04:15:06;14.05;;;7.95;;
49464;SDS011;35358;49.342;8.802;2022-07-23T04:17:35;9.65;;;8.65;;
49464;SDS011;35358;49.342;8.802;2022-07-23T04:20:05;10.57;;;8.80;;
49464;SDS011;35358;49.342;8.802;2022-07-23T04:22:31;10.35;;;8.60;;
49464;SDS011;35358;49.342;8.802;2022-07-23T04:24:56;9.57;;;8.65;;
49464;SDS011;35358;49.342;8.802;2022-07-23T04:27:22;12.88;;;10.13;;
49464;SDS011;35358;49.342;8.802;2022-07-23T04:29:50;12.27;;;9.50;;
49464;SDS011;35358;49.342;8.802;2022-07-23T04:32:15;11.65;;;9.20;;
49464;SDS011;35358;49.342;8.802;2022-07-23T04:34:43;11.70;;;8.75;;
49464;SDS011;35358;49.342;8.802;2022-07-23T04:37:08;10.07;;;7.35;;
49464;SDS011;35358;49.342;8.802;2022-07-23T04:39:34;9.18;;;7.95;;
49464;SDS011;35358;49.342;8.802;2022-07-23T04:41:59;9.05;;;8.15;;
49464;SDS011;35358;49.342;8.802;2022-07-23T04:44:25;9.68;;;7.97;;
49464;SDS011;35358;49.342;8.802;2022-07-23T04:46:53;8.50;;;7.55;;
49464;SDS011;35358;49.342;8.802;2022-07-23T04:49:21;8.52;;;7.70;;
49464;SDS011;35358;49.342;8.802;2022-07-23T04:51:49;8.45;;;7.60;;
49464;SDS011;35358;49.342;8.802;2022-07-23T04:54:15;7.10;;;6.38;;
49464;SDS011;35358;49.342;8.802;2022-07-23T04:56:42;9.43;;;7.10;;
49464;SDS011;35358;49.342;8.802;2022-07-23T04:59:10;10.65;;;8.25;;
49464;SDS011;35358;49.342;8.802;2022-07-23T05:01:35;10.88;;;9.32;;
49464;SDS011;35358;49.342;8.802;2022-07-23T05:04:03;10.57;;;9.63;;
49464;SDS011;35358;49.342;8.802;2022-07-23T05:06:31;9.50;;;8.60;;
49464;SDS011;35358;49.342;8.802;2022-07-23T05:08:59;9.55;;;8.55;;
49464;SDS011;35358;49.342;8.802;2022-07-23T05:11:25;10.52;;;8.60;;
49464;SDS011;35358;49.342;8.802;2022-07-23T05:13:53;13.63;;;9.70;;
49464;SDS011;35358;49.342;8.802;2022-07-23T05:16:21;10.57;;;9.10;;
49464;SDS011;35358;49.342;8.802;2022-07-23T05:18:52;13.38;;;8.55;;
49464;SDS011;35358;49.342;8.802;2022-07-23T05:21:19;13.25;;;8.32;;
49464;SDS011;35358;49.342;8.802;2022-07-23T05:23:47;8.95;;;7.68;;
49464;SDS011;35358;49.342;8.802;2022-07-23T05:26:15;9.63;;;8.43;;
49464;SDS011;35358;49.342;8.802;2022-07-23T05:28:43;9.93;;;8.90;;
49464;SDS011;35358;49.342;8.802;2022-07-23T05:31:11;19.25;;;9.50;;
49464;SDS011;35358;49.342;8.802;2022-07-23T05:33:37;9.10;;;8.02;;
49464;SDS011;35358;49.342;8.802;2022-07-23T05:36:05;8.77;;;7.78;;
49464;SDS011;35358;49.342;8.802;2022-07-23T05:38:31;9.23;;;8.30;;
49464;SDS011;35358;49.342;8.802;2022-07-23T05:40:57;8.25;;;7.35;;
49464;SDS011;35358;49.342;8.802;2022-07-23T05:43:25;8.93;;;7.35;;
49464;SDS011;35358;49.342;8.802;2022-07-23T05:45:51;10.15;;;7.38;;
49464;SDS011;35358;49.342;8.802;2022-07-23T05:48:19;8.82;;;7.72;;
49464;SDS011;35358;49.342;8.802;2022-07-23T05:50:47;12.05;;;8.35;;
49464;SDS011;35358;49.342;8.802;2022-07-23T05:53:15;9.45;;;8.02;;
49464;SDS011;35358;49.342;8.802;2022-07-23T05:55:45;9.25;;;7.88;;
49464;SDS011;35358;49.342;8.802;2022-07-23T05:58:11;9.88;;;8.10;;
49464;SDS011;35358;49.342;8.802;2022-07-23T06:00:36;10.77;;;8.00;;
49464;SDS011;35358;49.342;8.802;2022-07-23T06:03:02;10.55;;;8.05;;
49464;SDS011;35358;49.342;8.802;2022-07-23T06:05:30;10.73;;;8.32;;
49464;SDS011;35358;49.342;8.802;2022-07-23T06:07:58;9.15;;;8.23;;
49464;SDS011;35358;49.342;8.802;2022-07-23T06:10:24;11.00;;;8.95;;
49464;SDS011;35358;49.342;8.802;2022-07-23T06:12:49;9.65;;;8.73;;
49464;SDS011;35358;49.342;8.802;2022-07-23T06:15:15;9.88;;;8.40;;
49464;SDS011;35358;49.342;8.802;2022-07-23T06:17:41;13.55;;;8.15;;
49464;SDS011;35358;49.342;8.802;2022-07-23T06:20:09;12.65;;;9.65;;
49464;SDS011;35358;49.342;8.802;2022-07-23T06:22:37;12.93;;;8.73;;
49464;SDS011;35358;49.342;8.802;2022-07-23T06:25:03;8.98;;;8.07;;
49464;SDS011;35358;49.342;8.802;2022-07-23T06:27:32;10.73;;;8.60;;
49464;SDS011;35358;49.342;8.802;2022-07-23T06:29:57;11.05;;;9.07;;
49464;SDS011;35358;49.342;8.802;2022-07-23T06:32:25;11.85;;;8.90;;
49464;SDS011;35358;49.342;8.802;2022-07-23T06:34:51;12.05;;;8.48;;
49464;SDS011;35358;49.342;8.802;2022-07-23T06:37:17;10.98;;;8.85;;
49464;SDS011;35358;49.342;8.802;2022-07-23T06:39:42;10.23;;;8.55;;
49464;SDS011;35358;49.342;8.802;2022-07-23T06:42:08;10.05;;;8.75;;
49464;SDS011;35358;49.342;8.802;2022-07-23T06:44:36;10.23;;;9.23;;
49464;SDS011;35358;49.342;8.802;2022-07-23T06:47:02;9.98;;;8.52;;
49464;SDS011;35358;49.342;8.802;2022-07-23T06:49:28;11.88;;;8.88;;
49464;SDS011;35358;49.342;8.802;2022-07-23T06:51:56;10.18;;;9.13;;
49464;SDS011;35358;49.342;8.802;2022-07-23T06:54:21;9.77;;;8.77;;
49464;SDS011;35358;49.342;8.802;2022-07-23T06:56:47;10.63;;;8.80;;
49464;SDS011;35358;49.342;8.802;2022-07-23T06:59:13;10.20;;;8.60;;
49464;SDS011;35358;49.342;8.802;2022-07-23T07:01:39;13.73;;;10.23;;
49464;SDS011;35358;49.342;8.802;2022-07-23T07:04:09;12.88;;;9.60;;
49464;SDS011;35358;49.342;8.802;2022-07-23T07:06:37;11.77;;;9.95;;
49464;SDS011;35358;49.342;8.802;2022-07-23T07:09:05;10.95;;;9.65;;
49464;SDS011;35358;49.342;8.802;2022-07-23T07:11:31;11.38;;;9.98;;
49464;SDS011;35358;49.342;8.802;2022-07-23T07:13:59;13.35;;;10.23;;
49464;SDS011;35358;49.342;8.802;2022-07-23T07:16:24;12.20;;;10.52;;
49464;SDS011;35358;49.342;8.802;2022-07-23T07:18:50;11.52;;;9.52;;
49464;SDS011;35358;49.342;8.802;2022-07-23T07:21:15;12.07;;;9.35;;
49464;SDS011;35358;49.342;8.802;2022-07-23T07:23:43;11.93;;;10.30;;
49464;SDS011;35358;49.342;8.802;2022-07-23T07:26:09;12.43;;;10.25;;
49464;SDS011;35358;49.342;8.802;2022-07-23T07:28:34;15.30;;;9.95;;
49464;SDS011;35358;49.342;8.802;2022-07-23T07:31:02;14.75;;;10.13;;
49464;SDS011;35358;49.342;8.802;2022-07-23T07:33:28;11.77;;;10.07;;
49464;SDS011;35358;49.342;8.802;2022-07-23T07:35:54;11.18;;;9.65;;
49464;SDS011;35358;49.342;8.802;2022-07-23T07:38:19;12.55;;;10.90;;
49464;SDS011;35358;49.342;8.802;2022-07-23T07:40:45;11.50;;;10.02;;
49464;SDS011;35358;49.342;8.802;2022-07-23T07:43:13;11.88;;;10.63;;
49464;SDS011;35358;49.342;8.802;2022-07-23T07:45:41;11.65;;;9.48;;
49464;SDS011;35358;49.342;8.802;2022-07-23T07:48:06;11.48;;;10.18;;
49464;SDS011;35358;49.342;8.802;2022-07-23T07:50:34;11.30;;;9.70;;
49464;SDS011;35358;49.342;8.802;2022-07-23T07:53:00;11.35;;;10.25;;
49464;SDS011;35358;49.342;8.802;2022-07-23T07:55:25;12.07;;;10.50;;
49464;SDS011;35358;49.342;8.802;2022-07-23T07:57:52;12.02;;;9.68;;
49464;SDS011;35358;49.342;8.802;2022-07-23T08:00:17;13.50;;;10.13;;
49464;SDS011;35358;49.342;8.802;2022-07-23T08:02:44;11.20;;;9.45;;
49464;SDS011;35358;49.342;8.802;2022-07-23T08:05:11;9.90;;;8.90;;
49464;SDS011;35358;49.342;8.802;2022-07-23T08:07:37;11.98;;;9.48;;
49464;SDS011;35358;49.342;8.802;2022-07-23T08:10:04;13.05;;;9.77;;
49464;SDS011;35358;49.342;8.802;2022-07-23T08:15:03;11.05;;;9.52;;
49464;SDS011;35358;49.342;8.802;2022-07-23T08:17:29;11.25;;;9.27;;
49464;SDS011;35358;49.342;8.802;2022-07-23T08:19:54;11.48;;;9.38;;
49464;SDS011;35358;49.342;8.802;2022-07-23T08:22:22;10.77;;;9.50;;
49464;SDS011;35358;49.342;8.802;2022-07-23T08:24:48;11.10;;;8.98;;
49464;SDS011;35358;49.342;8.802;2022-07-23T08:27:13;10.10;;;9.00;;
49464;SDS011;35358;49.342;8.802;2022-07-23T08:29:39;10.85;;;9.60;;
49464;SDS011;35358;49.342;8.802;2022-07-23T08:32:04;10.43;;;9.32;;
49464;SDS011;35358;49.342;8.802;2022-07-23T08:34:30;11.25;;;8.85;;
49464;SDS011;35358;49.342;8.802;2022-07-23T08:36:56;13.32;;;9.40;;
49464;SDS011;35358;49.342;8.802;2022-07-23T08:39:21;11.15;;;9.13;;
49464;SDS011;35358;49.342;8.802;2022-07-23T08:41:49;10.35;;;9.02;;
49464;SDS011;35358;49.342;8.802;2022-07-23T08:44:18;13.07;;;9.35;;
49464;SDS011;35358;49.342;8.802;2022-07-23T08:46:46;11.85;;;8.40;;
49464;SDS011;35358;49.342;8.802;2022-07-23T08:49:15;10.88;;;8.55;;
49464;SDS011;35358;49.342;8.802;2022-07-23T08:51:41;8.75;;;7.78;;
49464;SDS011;35358;49.342;8.802;2022-07-23T08:54:09;9.45;;;8.45;;
49464;SDS011;35358;49.342;8.802;2022-07-23T08:56:38;11.27;;;8.23;;
49464;SDS011;35358;49.342;8.802;2022-07-23T08:59:04;9.95;;;8.52;;
49464;SDS011;35358;49.342;8.802;2022-07-23T09:01:29;8.68;;;7.40;;
49464;SDS011;35358;49.342;8.802;2022-07-23T09:03:55;11.02;;;8.23;;
49464;SDS011;35358;49.342;8.802;2022-07-23T09:06:23;9.32;;;8.32;;
49464;SDS011;35358;49.342;8.802;2022-07-23T09:08:48;8.38;;;7.57;;
49464;SDS011;35358;49.342;8.802;2022-07-23T09:11:17;8.48;;;7.55;;
49464;SDS011;35358;49.342;8.802;2022-07-23T09:16:15;8.52;;;7.50;;
49464;SDS011;35358;49.342;8.802;2022-07-23T09:18:51;10.10;;;9.02;;
49464;SDS011;35358;49.342;8.802;2022-07-23T09:21:34;16.10;;;9.25;;
49464;SDS011;35358;49.342;8.802;2022-07-23T09:34:13;9.25;;;8.27;;
49464;SDS011;35358;49.342;8.802;2022-07-23T09:36:57;10.88;;;8.90;;
49464;SDS011;35358;49.342;8.802;2022-07-23T09:39:35;10.95;;;8.82;;
49464;SDS011;35358;49.342;8.802;2022-07-23T09:42:14;9.85;;;8.50;;
49464;SDS011;35358;49.342;8.802;2022-07-23T09:44:45;13.00;;;9.73;;
49464;SDS011;35358;49.342;8.802;2022-07-23T09:47:22;14.63;;;9.60;;
49464;SDS011;35358;49.342;8.802;2022-07-23T09:52:34;10.43;;;9.43;;
49464;SDS011;35358;49.342;8.802;2022-07-23T09:55:02;10.00;;;8.90;;
49464;SDS011;35358;49.342;8.802;2022-07-23T09:57:31;11.88;;;8.48;;
49464;SDS011;35358;49.342;8.802;2022-07-23T10:00:01;11.50;;;8.40;;
49464;SDS011;35358;49.342;8.802;2022-07-23T10:02:33;11.63;;;8.55;;
49464;SDS011;35358;49.342;8.802;2022-07-23T10:05:00;9.82;;;8.82;;
49464;SDS011;35358;49.342;8.802;2022-07-23T10:07:33;11.38;;;9.65;;
49464;SDS011;35358;49.342;8.802;2022-07-23T10:10:04;10.10;;;9.10;;
49464;SDS011;35358;49.342;8.802;2022-07-23T10:12:31;11.13;;;9.90;;
49464;SDS011;35358;49.342;8.802;2022-07-23T10:15:15;12.23;;;9.77;;
49464;SDS011;35358;49.342;8.802;2022-07-23T10:17:47;11.38;;;10.18;;
49464;SDS011;35358;49.342;8.802;2022-07-23T10:20:13;13.80;;;10.00;;
49464;SDS011;35358;49.342;8.802;2022-07-23T10:22:50;13.07;;;9.50;;
49464;SDS011;35358;49.342;8.802;2022-07-23T10:25:51;11.15;;;9.05;;
49464;SDS011;35358;49.342;8.802;2022-07-23T10:34:07;10.90;;;7.85;;
49464;SDS011;35358;49.342;8.802;2022-07-23T10:42:37;9.48;;;7.47;;
49464;SDS011;35358;49.342;8.802;2022-07-23T10:47:49;8.95;;;7.65;;
49464;SDS011;35358;49.342;8.802;2022-07-23T10:50:19;8.93;;;7.15;;
49464;SDS011;35358;49.342;8.802;2022-07-23T10:58:05;10.13;;;7.10;;
49464;SDS011;35358;49.342;8.802;2022-07-23T11:00:31;9.55;;;7.60;;
49464;SDS011;35358;49.342;8.802;2022-07-23T11:02:59;11.32;;;8.15;;
49464;SDS011;35358;49.342;8.802;2022-07-23T11:05:47;8.68;;;7.00;;
49464;SDS011;35358;49.342;8.802;2022-07-23T11:08:13;9.15;;;8.00;;
49464;SDS011;35358;49.342;8.802;2022-07-23T11:10:46;8.48;;;7.68;;
49464;SDS011;35358;49.342;8.802;2022-07-23T11:13:38;8.73;;;7.28;;
49464;SDS011;35358;49.342;8.802;2022-07-23T11:31:57;9.80;;;7.67;;
49464;SDS011;35358;49.342;8.802;2022-07-23T11:34:31;11.40;;;8.10;;
49464;SDS011;35358;49.342;8.802;2022-07-23T11:37:02;7.53;;;6.75;;
49464;SDS011;35358;49.342;8.802;2022-07-23T11:39:30;11.98;;;7.63;;
49464;SDS011;35358;49.342;8.802;2022-07-23T11:41:59;8.63;;;6.78;;
49464;SDS011;35358;49.342;8.802;2022-07-23T11:44:33;12.68;;;7.00;;
49464;SDS011;35358;49.342;8.802;2022-07-23T11:47:07;9.15;;;6.63;;
49464;SDS011;35358;49.342;8.802;2022-07-23T11:49:37;7.70;;;6.88;;
49464;SDS011;35358;49.342;8.802;2022-07-23T11:52:07;7.57;;;6.35;;
49464;SDS011;35358;49.342;8.802;2022-07-23T11:54:35;7.97;;;6.30;;
49464;SDS011;35358;49.342;8.802;2022-07-23T11:57:15;9.77;;;6.82;;
49464;SDS011;35358;49.342;8.802;2022-07-23T11:59:41;9.63;;;7.47;;
49464;SDS011;35358;49.342;8.802;2022-07-23T12:02:08;8.52;;;7.43;;
49464;SDS011;35358;49.342;8.802;2022-07-23T12:04:41;7.18;;;6.43;;
49464;SDS011;35358;49.342;8.802;2022-07-23T12:09:59;6.20;;;5.35;;
49464;SDS011;35358;49.342;8.802;2022-07-23T12:12:44;6.55;;;5.78;;
49464;SDS011;35358;49.342;8.802;2022-07-23T12:15:13;7.68;;;6.05;;
49464;SDS011;35358;49.342;8.802;2022-07-23T12:17:40;8.60;;;5.80;;
49464;SDS011;35358;49.342;8.802;2022-07-23T12:20:11;9.05;;;5.82;;
49464;SDS011;35358;49.342;8.802;2022-07-23T12:22:39;7.82;;;6.03;;
49464;SDS011;35358;49.342;8.802;2022-07-23T12:25:08;11.10;;;5.78;;
49464;SDS011;35358;49.342;8.802;2022-07-23T12:28:00;6.13;;;5.50;;
49464;SDS011;35358;49.342;8.802;2022-07-23T12:30:28;7.40;;;6.20;;
49464;SDS011;35358;49.342;8.802;2022-07-23T12:33:01;6.60;;;5.85;;
49464;SDS011;35358;49.342;8.802;2022-07-23T12:38:09;8.63;;;6.63;;
49464;SDS011;35358;49.342;8.802;2022-07-23T12:40:40;7.37;;;6.53;;
49464;SDS011;35358;49.342;8.802;2022-07-23T12:43:10;8.30;;;7.35;;
49464;SDS011;35358;49.342;8.802;2022-07-23T12:45:56;10.25;;;7.75;;
49464;SDS011;35358;49.342;8.802;2022-07-23T12:50:55;8.15;;;7.35;;
49464;SDS011;35358;49.342;8.802;2022-07-23T12:53:38;7.85;;;7.10;;
49464;SDS011;35358;49.342;8.802;2022-07-23T12:56:12;8.30;;;6.90;;
49464;SDS011;35358;49.342;8.802;2022-07-23T12:58:52;9.10;;;7.57;;
49464;SDS011;35358;49.342;8.802;2022-07-23T13:06:52;8.68;;;7.65;;
49464;SDS011;35358;49.342;8.802;2022-07-23T13:09:24;8.15;;;7.38;;
49464;SDS011;35358;49.342;8.802;2022-07-23T13:11:54;7.10;;;6.40;;
49464;SDS011;35358;49.342;8.802;2022-07-23T13:14:21;9.45;;;8.20;;
49464;SDS011;35358;49.342;8.802;2022-07-23T13:16:47;8.95;;;7.93;;
49464;SDS011;35358;49.342;8.802;2022-07-23T13:19:14;9.25;;;8.35;;
49464;SDS011;35358;49.342;8.802;2022-07-23T13:21:40;8.63;;;7.75;;
49464;SDS011;35358;49.342;8.802;2022-07-23T13:24:07;10.57;;;7.80;;
49464;SDS011;35358;49.342;8.802;2022-07-23T13:26:33;8.40;;;7.50;;
49464;SDS011;35358;49.342;8.802;2022-07-23T13:29:01;10.98;;;7.25;;
49464;SDS011;35358;49.342;8.802;2022-07-23T13:31:27;12.35;;;8.40;;
49464;SDS011;35358;49.342;8.802;2022-07-23T13:33:53;9.88;;;8.57;;
49464;SDS011;35358;49.342;8.802;2022-07-23T13:36:21;8.43;;;7.45;;
49464;SDS011;35358;49.342;8.802;2022-07-23T13:38:49;9.25;;;7.20;;
49464;SDS011;35358;49.342;8.802;2022-07-23T13:41:16;8.63;;;6.75;;
49464;SDS011;35358;49.342;8.802;2022-07-23T13:43:42;10.68;;;7.15;;
49464;SDS011;35358;49.342;8.802;2022-07-23T13:46:08;7.10;;;6.32;;
49464;SDS011;35358;49.342;8.802;2022-07-23T13:48:34;8.48;;;7.18;;
49464;SDS011;35358;49.342;8.802;2022-07-23T13:51:00;8.40;;;7.57;;
49464;SDS011;35358;49.342;8.802;2022-07-23T13:53:25;7.85;;;7.15;;
49464;SDS011;35358;49.342;8.802;2022-07-23T13:55:52;7.68;;;6.97;;
49464;SDS011;35358;49.342;8.802;2022-07-23T13:58:19;7.35;;;6.65;;
49464;SDS011;35358;49.342;8.802;2022-07-23T14:00:48;9.10;;;7.22;;
49464;SDS011;35358;49.342;8.802;2022-07-23T14:03:16;8.65;;;7.78;;
49464;SDS011;35358;49.342;8.802;2022-07-23T14:05:42;8.27;;;7.47;;
49464;SDS011;35358;49.342;8.802;2022-07-23T14:08:13;8.25;;;7.43;;
49464;SDS011;35358;49.342;8.802;2022-07-23T14:10:38;9.35;;;7.30;;
49464;SDS011;35358;49.342;8.802;2022-07-23T14:13:07;9.95;;;7.88;;
49464;SDS011;35358;49.342;8.802;2022-07-23T14:15:32;11.80;;;6.28;;
49464;SDS011;35358;49.342;8.802;2022-07-23T14:18:00;9.77;;;7.22;;
49464;SDS011;35358;49.342;8.802;2022-07-23T14:20:26;7.45;;;6.82;;
49464;SDS011;35358;49.342;8.802;2022-07-23T14:22:54;8.30;;;6.85;;
49464;SDS011;35358;49.342;8.802;2022-07-23T14:25:21;12.82;;;7.40;;
49464;SDS011;35358;49.342;8.802;2022-07-23T14:27:47;7.70;;;6.82;;
49464;SDS011;35358;49.342;8.802;2022-07-23T14:30:13;9.15;;;7.13;;
49464;SDS011;35358;49.342;8.802;2022-07-23T14:32:39;9.18;;;6.45;;
49464;SDS011;35358;49.342;8.802;2022-07-23T14:35:05;7.18;;;6.47;;
49464;SDS011;35358;49.342;8.802;2022-07-23T14:37:31;8.05;;;6.68;;
49464;SDS011;35358;49.342;8.802;2022-07-23T14:39:58;7.75;;;6.43;;
49464;SDS011;35358;49.342;8.802;2022-07-23T14:42:24;7.63;;;6.85;;
49464;SDS011;35358;49.342;8.802;2022-07-23T14:44:53;7.65;;;6.85;;
49464;SDS011;35358;49.342;8.802;2022-07-23T14:47:21;7.95;;;7.15;;
49464;SDS011;35358;49.342;8.802;2022-07-23T14:49:46;7.47;;;6.80;;
49464;SDS011;35358;49.342;8.802;2022-07-23T14:52:12;8.70;;;7.25;;
49464;SDS011;35358;49.342;8.802;2022-07-23T14:54:38;8.70;;;7.50;;
49464;SDS011;35358;49.342;8.802;2022-07-23T14:57:05;8.93;;;7.53;;
49464;SDS011;35358;49.342;8.802;2022-07-23T14:59:33;10.70;;;6.57;;
49464;SDS011;35358;49.342;8.802;2022-07-23T15:01:59;8.13;;;6.90;;
49464;SDS011;35358;49.342;8.802;2022-07-23T15:04:29;7.65;;;6.93;;
49464;SDS011;35358;49.342;8.802;2022-07-23T15:06:55;8.98;;;7.13;;
49464;SDS011;35358;49.342;8.802;2022-07-23T15:09:20;7.60;;;6.90;;
49464;SDS011;35358;49.342;8.802;2022-07-23T15:11:46;9.07;;;6.80;;
49464;SDS011;35358;49.342;8.802;2022-07-23T15:14:14;7.60;;;6.60;;
49464;SDS011;35358;49.342;8.802;2022-07-23T15:16:40;8.25;;;6.57;;
49464;SDS011;35358;49.342;8.802;2022-07-23T15:19:07;8.18;;;6.90;;
49464;SDS011;35358;49.342;8.802;2022-07-23T15:21:33;9.82;;;7.88;;
49464;SDS011;35358;49.342;8.802;2022-07-23T15:23:59;7.35;;;6.65;;
49464;SDS011;35358;49.342;8.802;2022-07-23T15:26:28;9.88;;;7.68;;
49464;SDS011;35358;49.342;8.802;2022-07-23T15:28:56;8.63;;;7.57;;
49464;SDS011;35358;49.342;8.802;2022-07-23T15:31:27;7.80;;;6.82;;
49464;SDS011;35358;49.342;8.802;2022-07-23T15:33:53;7.85;;;7.15;;
49464;SDS011;35358;49.342;8.802;2022-07-23T15:36:19;7.75;;;7.00;;
49464;SDS011;35358;49.342;8.802;2022-07-23T15:38:45;7.95;;;7.18;;
49464;SDS011;35358;49.342;8.802;2022-07-23T15:41:12;7.07;;;6.35;;
49464;SDS011;35358;49.342;8.802;2022-07-23T15:43:38;8.52;;;7.72;;
49464;SDS011;35358;49.342;8.802;2022-07-23T15:46:04;7.63;;;6.68;;
49464;SDS011;35358;49.342;8.802;2022-07-23T15:48:30;9.68;;;7.00;;
49464;SDS011;35358;49.342;8.802;2022-07-23T15:50:56;9.30;;;7.45;;